Time;durP1;ratioP1;P1;durP2;ratioP2;P2;SDS_P1;SDS_P2;PMS_P1;PMS_P2;Temp;Humidity;BMP_temperature;BMP_pressure;BME280_temperature;BME280_humidity;BME280_pressure;Samples;Min_cycle;Max_cycle;Signal;HPM_P1;HPM_P2
2023/06/17 00:01:46;;;;;;;9.48;7.88;;;;;;;13.56;75.82;99898.78;30504390;28;108730;-75
2023/06/17 00:16:47;;;;;;;10.07;7.72;;;;;;;13.49;76.38;99887.19;30503016;28;98560;-76
2023/06/17 00:31:47;;;;;;;11.68;8.23;;;;;;;13.40;76.73;99881.19;30484807;28;97754;-74
2023/06/17 00:46:52;;;;;;;11.40;7.57;;;;;;;13.31;77.15;99877.81;30501328;28;100613;-74
2023/06/17 01:01:53;;;;;;;10.90;8.13;;;;;;;13.28;77.30;99870.16;30499947;28;96728;-75
2023/06/17 01:16:54;;;;;;;18.85;8.90;;;;;;;13.22;77.66;99879.00;30497364;28;109495;-76
2023/06/17 01:31:59;;;;;;;11.30;8.23;;;;;;;13.23;78.01;99882.47;30497275;28;96684;-66
2023/06/17 01:47:00;;;;;;;11.60;8.27;;;;;;;13.16;78.18;99874.41;30495909;28;96786;-75
2023/06/17 02:02:00;;;;;;;10.52;8.75;;;;;;;13.18;78.51;99875.88;30493476;28;97096;-72
2023/06/17 02:17:00;;;;;;;11.13;8.45;;;;;;;13.37;78.70;99874.38;30492132;28;96728;-75
2023/06/17 02:32:01;;;;;;;10.85;7.60;;;;;;;13.54;78.55;99885.63;30491801;28;107892;-75
2023/06/17 02:47:02;;;;;;;12.20;8.65;;;;;;;13.73;78.56;99869.03;30490791;28;96606;-74
2023/06/17 03:02:02;;;;;;;14.57;8.27;;;;;;;13.95;78.25;99867.88;30489512;28;96691;-75
2023/06/17 03:17:03;;;;;;;12.88;6.70;;;;;;;14.22;77.72;99874.13;30506679;28;96832;-73
2023/06/17 03:32:04;;;;;;;9.57;7.05;;;;;;;14.46;77.25;99885.34;30507149;28;97207;-74
2023/06/17 03:47:04;;;;;;;11.10;6.32;;;;;;;14.90;77.01;99885.81;30506935;28;96737;-75
2023/06/17 04:02:05;;;;;;;11.23;6.32;;;;;;;15.37;76.57;99886.59;30505663;28;97369;-74
2023/06/17 04:17:06;;;;;;;12.55;6.30;;;;;;;15.66;75.76;99886.34;30501831;28;97113;-75
2023/06/17 04:32:10;;;;;;;8.67;5.67;;;;;;;15.67;74.79;99886.13;30501864;28;96936;-75
2023/06/17 04:47:12;;;;;;;9.73;5.97;;;;;;;15.97;74.51;99876.75;30499397;28;97498;-67
2023/06/17 05:02:13;;;;;;;9.93;5.60;;;;;;;16.65;72.75;99891.44;30497951;28;96736;-69
2023/06/17 05:17:13;;;;;;;9.60;6.50;;;;;;;17.03;71.54;99883.34;30496018;28;96780;-69
2023/06/17 05:32:14;;;;;;;9.10;6.38;;;;;;;17.78;70.85;99889.63;30493977;28;96859;-75
2023/06/17 05:47:14;;;;;;;6.88;4.25;;;;;;;19.18;68.33;99891.44;30492363;28;96689;-73
2023/06/17 06:02:14;;;;;;;11.02;4.90;;;;;;;19.25;64.70;99887.53;30489443;28;107786;-74
2023/06/17 06:17:15;;;;;;;8.90;5.05;;;;;;;19.95;63.03;99899.31;30484106;28;96704;-66
2023/06/17 06:32:16;;;;;;;8.60;5.07;;;;;;;20.60;60.70;99907.31;30478115;28;97462;-72
2023/06/17 06:47:18;;;;;;;10.83;5.27;;;;;;;20.36;58.37;99923.66;30494984;28;97365;-67
2023/06/17 07:02:18;;;;;;;8.73;5.30;;;;;;;20.20;57.50;99925.25;30383832;28;97673;-74
2023/06/17 07:17:18;;;;;;;8.57;4.93;;;;;;;20.89;56.75;99924.34;30378303;28;96883;-67
2023/06/17 07:32:19;;;;;;;7.57;4.57;;;;;;;21.11;54.78;99912.78;30377295;28;115670;-70
2023/06/17 07:47:20;;;;;;;10.33;4.97;;;;;;;21.63;52.75;99923.31;30453190;28;97256;-71
2023/06/17 08:02:21;;;;;;;6.93;4.43;;;;;;;22.28;52.36;99899.19;30490937;28;97349;-72
2023/06/17 08:17:21;;;;;;;10.27;5.40;;;;;;;24.07;49.16;99899.94;30492372;28;96938;-68
2023/06/17 08:32:22;;;;;;;8.77;6.15;;;;;;;24.28;45.70;99895.38;30491498;28;97098;-72
2023/06/17 08:47:23;;;;;;;6.53;4.38;;;;;;;24.92;44.01;99893.28;30489747;28;97118;-72
2023/06/17 09:02:24;;;;;;;8.03;4.40;;;;;;;25.23;42.39;99895.97;30487260;28;97895;-72
2023/06/17 09:17:32;;;;;;;5.63;3.63;;;;;;;26.10;41.50;99879.34;30483708;28;97225;-72
2023/06/17 09:32:40;;;;;;;5.80;3.87;;;;;;;25.40;39.90;99887.53;30527835;28;97502;-71
2023/06/17 09:47:40;;;;;;;6.97;4.53;;;;;;;23.73;43.11;99903.03;30547539;28;96816;-73
2023/06/17 10:02:41;;;;;;;5.57;4.03;;;;;;;23.73;43.41;99903.03;30554183;28;97977;-71
2023/06/17 10:17:44;;;;;;;6.35;3.97;;;;;;;25.40;41.81;99899.25;30551924;28;96835;-73
2023/06/17 10:32:51;;;;;;;9.97;4.27;;;;;;;24.20;42.68;99882.31;30552522;28;98615;-69
2023/06/17 10:48:12;;;;;;;4.83;3.80;;;;;;;26.17;40.94;99876.31;30543423;28;97575;-68
2023/06/17 11:03:16;;;;;;;5.90;4.20;;;;;;;26.98;37.61;99876.84;30540576;28;98680;-73
2023/06/17 11:18:16;;;;;;;6.70;4.13;;;;;;;27.97;34.85;99852.75;30495123;28;100699;-71
2023/06/17 11:33:21;;;;;;;5.88;4.53;;;;;;;30.26;32.98;99843.69;30468001;28;102242;-68
2023/06/17 11:48:28;;;;;;;4.70;3.80;;;;;;;31.24;30.95;99815.69;30495453;28;96814;-73
2023/06/17 12:03:29;;;;;;;7.33;3.70;;;;;;;30.45;29.51;99821.56;30486543;28;96775;-75
2023/06/17 12:18:29;;;;;;;4.10;3.28;;;;;;;28.52;31.27;99813.06;30501968;28;96923;-71
2023/06/17 12:33:30;;;;;;;4.88;2.95;;;;;;;27.62;32.87;99811.06;30501475;28;96708;-75
2023/06/17 12:48:30;;;;;;;7.60;3.60;;;;;;;27.42;33.87;99805.84;30499465;28;96748;-75
2023/06/17 13:03:31;;;;;;;5.55;3.58;;;;;;;26.63;34.28;99791.31;30498553;28;97111;-74
2023/06/17 13:18:31;;;;;;;6.80;3.40;;;;;;;28.18;33.17;99781.28;30448064;28;97079;-75
2023/06/17 13:33:31;;;;;;;2.90;2.10;;;;;;;26.81;33.50;99772.63;30367536;28;97515;-75
2023/06/17 13:48:32;;;;;;;3.42;2.60;;;;;;;26.78;32.77;99767.75;30383119;28;97284;-71
2023/06/17 14:03:32;;;;;;;4.30;2.30;;;;;;;25.71;34.14;99761.94;30463573;28;97544;-71
2023/06/17 14:18:33;;;;;;;3.85;2.58;;;;;;;27.03;33.17;99759.25;30481192;28;97455;-70
2023/06/17 14:33:35;;;;;;;3.92;2.65;;;;;;;25.27;35.59;99775.19;30478085;28;97402;-73
2023/06/17 14:48:35;;;;;;;6.63;3.20;;;;;;;24.15;37.81;99785.13;30475731;28;97156;-75
2023/06/17 15:03:36;;;;;;;5.15;3.60;;;;;;;23.47;38.64;99773.25;30481146;28;97068;-75
2023/06/17 15:18:36;;;;;;;4.30;3.78;;;;;;;22.68;41.14;99787.72;30496440;28;108732;-71
2023/06/17 15:33:37;;;;;;;;;;;;;;;21.89;43.78;99771.81;30494874;28;97110;-72
2023/06/17 15:48:37;;;;;;;6.37;4.90;;;;;;;21.15;46.71;99794.78;30495235;28;97318;-71
2023/06/17 16:03:38;;;;;;;7.90;5.27;;;;;;;20.78;48.50;99784.50;30491381;28;97468;-70
2023/06/17 16:18:39;;;;;;;6.37;4.80;;;;;;;20.77;50.15;99799.91;30489738;28;97380;-70
2023/06/17 16:33:39;;;;;;;7.20;4.93;;;;;;;21.41;50.08;99798.63;30488926;28;97295;-67
2023/06/17 16:48:40;;;;;;;8.40;4.57;;;;;;;21.48;49.21;99806.56;30488766;28;96781;-70
2023/06/17 17:03:40;;;;;;;7.57;6.33;;;;;;;21.11;49.57;99826.13;30486611;28;96931;-69
2023/06/17 17:18:40;;;;;;;9.03;6.07;;;;;;;20.92;51.39;99822.88;30485474;28;96834;-67
2023/06/17 17:33:43;;;;;;;7.73;5.37;;;;;;;20.56;52.14;99830.41;30483171;28;110883;-70
2023/06/17 17:48:43;;;;;;;7.40;5.40;;;;;;;20.26;53.27;99826.91;30483176;28;97548;-70
2023/06/17 18:03:43;;;;;;;7.30;4.80;;;;;;;19.86;54.60;99824.25;30481069;28;101156;-66
2023/06/17 18:18:44;;;;;;;6.20;4.60;;;;;;;19.66;53.92;99828.19;30480911;28;97018;-68
2023/06/17 18:33:44;;;;;;;8.27;3.53;;;;;;;19.27;53.73;99836.84;30356552;28;97452;-67
2023/06/17 18:48:45;;;;;;;5.43;3.80;;;;;;;18.87;53.62;99860.97;30372427;28;97159;-68
2023/06/17 19:03:45;;;;;;;4.63;3.33;;;;;;;18.25;54.84;99868.31;30372146;28;97039;-67
2023/06/17 19:18:46;;;;;;;5.00;3.50;;;;;;;17.68;56.57;99894.72;30372847;28;97067;-66
2023/06/17 19:33:46;;;;;;;5.60;3.55;;;;;;;17.25;57.52;99907.19;30378845;28;97369;-68
2023/06/17 19:48:46;;;;;;;6.20;3.50;;;;;;;16.94;58.69;99916.94;30429023;28;106202;-67
2023/06/17 20:03:47;;;;;;;8.18;4.07;;;;;;;16.72;59.79;99935.28;30478799;28;110285;-67
2023/06/17 20:18:47;;;;;;;5.80;3.95;;;;;;;16.52;60.64;99941.59;30485926;28;101599;-67
2023/06/17 20:33:47;;;;;;;9.40;5.65;;;;;;;16.28;61.73;99935.13;30497470;28;96791;-68
2023/06/17 20:48:48;;;;;;;6.57;4.32;;;;;;;16.02;62.34;99944.94;30494707;28;97406;-68
2023/06/17 21:03:48;;;;;;;10.18;5.82;;;;;;;15.79;63.18;99940.00;30496584;28;108148;-67
2023/06/17 21:18:48;;;;;;;9.38;6.57;;;;;;;15.54;64.10;99939.84;30497343;28;96672;-66
2023/06/17 21:33:50;;;;;;;9.63;6.97;;;;;;;15.26;65.58;99937.41;30496347;28;96836;-67
2023/06/17 21:48:50;;;;;;;9.35;6.50;;;;;;;15.11;66.51;99938.44;30495984;28;97376;-66
2023/06/17 22:03:51;;;;;;;13.55;6.65;;;;;;;15.01;67.41;99946.09;30493482;28;97326;-67
2023/06/17 22:18:51;;;;;;;10.55;6.47;;;;;;;14.93;67.75;99948.97;30492873;28;110400;-68
2023/06/17 22:33:51;;;;;;;22.33;13.07;;;;;;;14.76;68.20;99941.28;30492472;28;97535;-66
2023/06/17 22:48:52;;;;;;;23.30;14.75;;;;;;;14.62;69.13;99943.09;30491292;28;96682;-67
2023/06/17 23:03:52;;;;;;;19.65;12.32;;;;;;;14.45;69.64;99942.63;30488874;28;97360;-69
2023/06/17 23:18:52;;;;;;;20.10;11.20;;;;;;;14.20;70.54;99934.28;30488567;28;103807;-69
2023/06/17 23:33:53;;;;;;;10.38;7.55;;;;;;;14.18;71.29;99929.13;30504577;28;107919;-69
2023/06/17 23:48:54;;;;;;;11.90;9.20;;;;;;;14.39;71.36;99941.59;30506662;28;96932;-68
